ADDS METAR Data INFO
IDs: Format: Raw Decoded Include TAF

Data at: 0220 UTC 18 Jan 2018

KAQP 180213Z AUTO 24008KT 10SM CLR M03/M07 A3006 RMK AO2
KAQP 180154Z AUTO 24008KT 10SM CLR M03/M07 A3006 RMK AO2
KAQP 180133Z AUTO 23009KT 10SM CLR M03/M07 A3007 RMK AO2
KAQP 180115Z AUTO 24011KT 10SM CLR M02/M07 A3007 RMK AO2
KAQP 180053Z AUTO 23010KT 10SM CLR M02/M07 A3008 RMK AO2
KAQP 180034Z AUTO 24010KT 10SM CLR M03/M07 A3008 RMK AO2
KAQP 180013Z AUTO 25008KT 10SM CLR M03/M07 A3009 RMK AO2
KAQP 172354Z AUTO 26008KT 10SM CLR M03/M07 A3009 RMK AO2
KAQP 172333Z AUTO 25006KT 10SM CLR M02/M07 A3009 RMK AO2
KAQP 172313Z AUTO 26008KT 10SM CLR M01/M06 A3009 RMK AO2
KAQP 172255Z AUTO 26007KT 10SM CLR 01/M06 A3009 RMK AO2
KAQP 172234Z AUTO 27008KT 10SM CLR 02/M06 A3009 RMK AO2
KAQP 172213Z AUTO 25009KT 10SM CLR 02/M06 A3007 RMK AO2
KAQP 172154Z AUTO 25011KT 10SM CLR 03/M06 A3008 RMK AO2
KAQP 172134Z AUTO 26011KT 10SM CLR 03/M07 A3008 RMK AO2
KAQP 172113Z AUTO 25010KT 10SM CLR 02/M07 A3008 RMK AO2
KAQP 172053Z AUTO 24008KT 10SM CLR 02/M07 A3008 RMK AO2
KAQP 172033Z AUTO 24016KT 10SM CLR 02/M08 A3007 RMK AO2
KAQP 172013Z AUTO 22011KT 10SM CLR 02/M09 A3006 RMK AO2
KAQP 171954Z AUTO 24008KT 10SM CLR 02/M09 A3009 RMK AO2
KAQP 171933Z AUTO 24010KT 10SM CLR 01/M09 A3010 RMK AO2
KAQP 171914Z AUTO 24011KT 10SM CLR 01/M09 A3011 RMK AO2
KAQP 171854Z AUTO 24008KT 10SM CLR M01/M09 A3012 RMK AO2
KAQP 171833Z AUTO 24005KT 10SM CLR M02/M11 A3012 RMK AO2
KAQP 171813Z AUTO 22010KT 10SM CLR M03/M12 A3012 RMK AO2
KAQP 171753Z AUTO 22009KT 10SM CLR M03/M12 A3012 RMK AO2
KAQP 171733Z AUTO 22012KT 10SM CLR M04/M13 A3014 RMK AO2
KAQP 171715Z AUTO 21012G16KT 10SM CLR M05/M13 A3014 RMK AO2
KAQP 171654Z AUTO 21012G16KT 10SM CLR M06/M14 A3015 RMK AO2
KAQP 171633Z AUTO 21009G15KT 10SM CLR M07/M14 A3017 RMK AO2
KAQP 171614Z AUTO 21011G15KT 10SM CLR M08/M15 A3018 RMK AO2
KAQP 171554Z AUTO 20009KT 10SM CLR M09/M16 A3019 RMK AO2
KAQP 171533Z AUTO 20008KT 10SM CLR M11/M16 A3020 RMK AO2
KAQP 171514Z AUTO 19006KT 10SM CLR M12/M17 A3021 RMK AO2
KAQP 171453Z AUTO 19006KT 10SM CLR M12/M17 A3022 RMK AO2
KAQP 171435Z AUTO 18006KT 10SM CLR M13/M18 A3022 RMK AO2
KAQP 171414Z AUTO 19006KT 10SM CLR M13/M18 A3023 RMK AO2
KAQP 171353Z AUTO 18005KT 10SM CLR M13/M18 A3024 RMK AO2
KAQP 171333Z AUTO 18006KT 10SM CLR M13/M18 A3024 RMK AO2
KAQP 171314Z AUTO 18006KT 10SM CLR M13/M18 A3025 RMK AO2
KAQP 171253Z AUTO 18006KT 10SM CLR M13/M18 A3025 RMK AO2
KAQP 171234Z AUTO 18005KT 10SM CLR M13/M18 A3026 RMK AO2
KAQP 171213Z AUTO 18006KT 10SM CLR M14/M18 A3027 RMK AO2
KAQP 171153Z AUTO 17005KT 10SM CLR M14/M19 A3028 RMK AO2
KAQP 171135Z AUTO 18005KT 10SM CLR M14/M18 A3029 RMK AO2
KAQP 171113Z AUTO 18005KT 10SM CLR M14/M19 A3029 RMK AO2
KAQP 171053Z AUTO 17005KT 10SM CLR M16/M19 A3030 RMK AO2
KAQP 171035Z AUTO 17005KT 10SM CLR M16/M19 A3032 RMK AO2
KAQP 171014Z AUTO 16005KT 10SM CLR M16/M19 A3033 RMK AO2
KAQP 170954Z AUTO 16005KT 10SM CLR M16/M20 A3034 RMK AO2
KAQP 170934Z AUTO 16005KT 10SM CLR M16/M20 A3034 RMK AO2
KAQP 170913Z AUTO 17005KT 10SM CLR M16/M19 A3034 RMK AO2
KAQP 170854Z AUTO 17005KT 10SM CLR M16/M20 A3035 RMK AO2
KAQP 170833Z AUTO 17006KT 10SM CLR M16/M20 A3036 RMK AO2
KAQP 170815Z AUTO 17006KT 10SM CLR M16/M20 A3037 RMK AO2
KAQP 170754Z AUTO 17005KT 10SM CLR M16/M20 A3037 RMK AO2
KAQP 170734Z AUTO 17006KT 10SM CLR M16/M20 A3038 RMK AO2
KAQP 170715Z AUTO 17005KT 10SM CLR M16/M20 A3039 RMK AO2
KAQP 170654Z AUTO 18005KT 10SM CLR M16/M20 A3040 RMK AO2
KAQP 170633Z AUTO 18006KT 10SM CLR M16/M20 A3042 RMK AO2
KAQP 170615Z AUTO 18006KT 10SM CLR M16/M20 A3043 RMK AO2
KAQP 170553Z AUTO 17006KT 10SM CLR M17/M20 A3044 RMK AO2
KAQP 170534Z AUTO 19005KT 10SM CLR M16/M20 A3044 RMK AO2
KAQP 170514Z AUTO 19006KT 10SM CLR M16/M19 A3047 RMK AO2
KAQP 170453Z AUTO 19005KT 10SM CLR M16/M19 A3046 RMK AO2
KAQP 170434Z AUTO 18006KT 10SM CLR M16/M20 A3047 RMK AO2
KAQP 170414Z AUTO 17004KT 10SM CLR M16/M19 A3049 RMK AO2
KAQP 170353Z AUTO 18005KT 10SM CLR M16/M19 A3049 RMK AO2
KAQP 170334Z AUTO 20005KT 10SM CLR M16/M19 A3050 RMK AO2
KAQP 170314Z AUTO 20006KT 10SM CLR M16/M19 A3049 RMK AO2
KAQP 170253Z AUTO 20008KT 10SM CLR M16/M19 A3051 RMK AO2
KAQP 170233Z AUTO 18005KT 10SM CLR M16/M19 A3053 RMK AO2
KAQP 170213Z AUTO 16005KT 10SM CLR M16/M19 A3055 RMK AO2
KAQP 170153Z AUTO 16004KT 10SM CLR M16/M19 A3057 RMK AO2
KAQP 170134Z AUTO 16005KT 10SM CLR M15/M19 A3056 RMK AO2
KAQP 170114Z AUTO 18006KT 10SM CLR M16/M19 A3054 RMK AO2
KAQP 170053Z AUTO 17005KT 10SM CLR M16/M19 A3056 RMK AO2 P0001
KAQP 170034Z AUTO 17004KT 10SM CLR M16/M20 A3057 RMK AO2 P0001
KAQP 170014Z AUTO 17004KT 10SM CLR M16/M20 A3058 RMK AO2
KAQP 162354Z AUTO 00000KT 10SM SCT120 M16/M20 A3059 RMK AO2
KAQP 162333Z AUTO 20004KT 10SM BKN120 M15/M20 A3060 RMK AO2
KAQP 162314Z AUTO 00000KT 10SM SCT120 M14/M19 A3061 RMK AO2
KAQP 162254Z AUTO 00000KT 10SM CLR M14/M19 A3061 RMK AO2
KAQP 162234Z AUTO 00000KT 10SM CLR M14/M19 A3061 RMK AO2
KAQP 162214Z AUTO 00000KT 10SM CLR M14/M19 A3063 RMK AO2
KAQP 162153Z AUTO 00000KT 10SM CLR M14/M19 A3063 RMK AO2
KAQP 162133Z AUTO 00000KT 10SM CLR M14/M19 A3064 RMK AO2
KAQP 162113Z AUTO 26003KT 10SM CLR M14/M19 A3065 RMK AO2
KAQP 162053Z AUTO 00000KT 10SM CLR M15/M20 A3065 RMK AO2
KAQP 162034Z AUTO 28004KT 10SM CLR M16/M20 A3066 RMK AO2
KAQP 162014Z AUTO 27003KT 10SM CLR M16/M21 A3066 RMK AO2
KAQP 161953Z AUTO 30005KT 10SM CLR M16/M21 A3068 RMK AO2
KAQP 161934Z AUTO 30005KT 10SM CLR M16/M21 A3068 RMK AO2
KAQP 161914Z AUTO 31005KT 10SM CLR M17/M22 A3069 RMK AO2
KAQP 161854Z AUTO 29007KT 10SM CLR M17/M22 A3069 RMK AO2
KAQP 161834Z AUTO 28006KT 10SM CLR M18/M22 A3071 RMK AO2
KAQP 161814Z AUTO 31005KT 10SM CLR M18/M23 A3072 RMK AO2
KAQP 161753Z AUTO 30005KT 10SM CLR M19/M23 A3073 RMK AO2
KAQP 161734Z AUTO 31006KT 10SM CLR M19/M24 A3074 RMK AO2
KAQP 161713Z AUTO 31007KT 10SM CLR M20/M24 A3075 RMK AO2
KAQP 161653Z AUTO 31007KT 10SM CLR M21/M25 A3075 RMK AO2
KAQP 161634Z AUTO 32006KT 10SM CLR M21/M26 A3075 RMK AO2
KAQP 161614Z AUTO 32007KT 10SM CLR M22/M26 A3075 RMK AO2
KAQP 161555Z AUTO 31007KT 10SM CLR M22/M26 A3075 RMK AO2
KAQP 161533Z AUTO 32008KT 10SM CLR M23/M27 A3076 RMK AO2
KAQP 161514Z AUTO 31006KT 10SM CLR M23/M27 A3076 RMK AO2
KAQP 161454Z AUTO 32007KT 10SM CLR M23/M27 A3076 RMK AO2
KAQP 161434Z AUTO 31007KT 10SM CLR M23/M27 A3076 RMK AO2